Yarmouth Airport

CYQI | YQI

Yarmouth , Nova Scotia , Canada

Sunday, June 7th, 2020 | 04:04

Weather

CYQI 070602Z 07007KT 2SM BR VV002 13/13 A2960 RMK FG8 SLP024 DENSITY ALT 300FT

Charts

No Charts Available

Gates

No Gates Available

Runways

2 Available

Active ATC

Events -Coming Soon-

1 Events Coming Up Soon

Next event:
CYQI Flyout